createdAt,value
2023-01-11T00:02:20.512Z,100133.94
2023-01-11T00:04:47.725Z,100127.81
2023-01-11T00:07:14.107Z,100131.31
2023-01-11T00:09:40.466Z,100122.59
2023-01-11T00:12:08.212Z,100118.72
2023-01-11T00:14:34.592Z,100116.31
2023-01-11T00:17:01.079Z,100113.06
2023-01-11T00:19:27.423Z,100113.47
2023-01-11T00:21:53.833Z,100098.72
2023-01-11T00:24:20.249Z,100088.22
2023-01-11T00:26:46.737Z,100081.53
2023-01-11T00:29:13.342Z,100069.16
2023-01-11T00:31:39.714Z,100058.88
2023-01-11T00:34:06.223Z,100041.72
2023-01-11T00:36:32.668Z,100039.19
2023-01-11T00:38:59.002Z,100032.91
2023-01-11T00:41:44.116Z,100029.34
2023-01-11T00:44:29.651Z,100027.88
2023-01-11T00:47:14.950Z,100032.47
2023-01-11T00:49:41.592Z,100039.28
2023-01-11T00:52:11.434Z,100040.75
2023-01-11T00:54:38.960Z,100044.84
2023-01-11T00:57:08.959Z,100037.00
2023-01-11T00:59:36.677Z,100021.28
2023-01-11T01:02:03.562Z,100030.59
2023-01-11T01:04:29.935Z,100023.78
2023-01-11T01:06:56.370Z,100017.19
2023-01-11T01:09:22.882Z,100013.09
2023-01-11T01:11:49.560Z,100002.63
2023-01-11T01:14:33.042Z,100006.19
2023-01-11T01:17:02.294Z,100008.59
2023-01-11T01:19:30.619Z,100017.38
2023-01-11T01:21:58.615Z,100008.47
2023-01-11T01:24:25.948Z,100006.69
2023-01-11T01:26:52.611Z,99999.44
2023-01-11T01:29:19.198Z,99986.25
2023-01-11T01:31:45.645Z,99981.75
2023-01-11T01:34:12.353Z,99977.34
2023-01-11T01:36:38.979Z,99983.44
2023-01-11T01:39:06.927Z,99965.59
2023-01-11T01:41:34.712Z,99971.06
2023-01-11T01:44:04.187Z,99982.59
2023-01-11T01:46:33.101Z,99969.38
2023-01-11T01:49:13.872Z,99961.63
2023-01-11T01:51:47.669Z,99968.53
2023-01-11T01:54:19.966Z,99972.13
2023-01-11T01:56:53.674Z,99967.91
2023-01-11T01:59:22.179Z,99972.41
2023-01-11T02:01:49.799Z,99957.22
2023-01-11T02:04:24.540Z,99948.63
2023-01-11T02:06:54.985Z,99950.31
2023-01-11T02:09:29.504Z,99944.03
2023-01-11T02:11:57.383Z,99942.91
2023-01-11T02:14:24.698Z,99933.13
2023-01-11T02:16:51.200Z,99935.53
2023-01-11T02:19:27.810Z,99933.44
2023-01-11T02:22:14.459Z,99930.59
2023-01-11T02:25:12.695Z,99932.25
2023-01-11T02:27:54.300Z,99925.13
2023-01-11T02:30:30.178Z,99920.84
2023-01-11T02:33:25.643Z,99927.44
2023-01-11T02:36:15.349Z,99918.38
2023-01-11T02:38:47.302Z,99909.47
2023-01-11T02:41:51.917Z,99908.06
2023-01-11T02:44:42.542Z,99909.84
2023-01-11T02:47:17.772Z,99900.94
2023-01-11T02:50:01.420Z,99889.63
2023-01-11T02:52:42.096Z,99887.72
2023-01-11T02:55:12.427Z,99888.78
2023-01-11T02:57:42.685Z,99887.59
2023-01-11T03:00:13.011Z,99883.91
2023-01-11T03:02:39.569Z,99878.22
2023-01-11T03:05:12.403Z,99876.88
2023-01-11T03:07:53.978Z,99879.06
2023-01-11T03:10:49.863Z,99872.16
2023-01-11T03:13:33.824Z,99875.50
2023-01-11T03:16:27.250Z,99873.59
2023-01-11T03:19:07.311Z,99857.84
2023-01-11T03:21:47.821Z,99855.97
2023-01-11T03:24:32.569Z,99853.38
2023-01-11T03:27:10.186Z,99844.78
2023-01-11T03:29:43.781Z,99832.41
2023-01-11T03:32:22.318Z,99831.44
2023-01-11T03:35:24.284Z,99823.69
2023-01-11T03:37:50.844Z,99822.75
2023-01-11T03:40:23.664Z,99823.34
2023-01-11T03:43:11.499Z,99813.81
2023-01-11T03:45:47.366Z,99815.13
2023-01-11T03:48:19.733Z,99811.53
2023-01-11T03:50:49.546Z,99808.19
2023-01-11T03:53:17.675Z,99808.09
2023-01-11T03:55:48.130Z,99810.97
2023-01-11T03:58:14.665Z,99798.09
2023-01-11T04:00:41.299Z,99795.34
2023-01-11T04:03:09.683Z,99799.53
2023-01-11T04:05:38.229Z,99794.28
2023-01-11T04:08:04.983Z,99799.38
2023-01-11T04:10:31.581Z,99802.00
2023-01-11T04:12:57.941Z,99790.22
2023-01-11T04:15:24.311Z,99793.31
2023-01-11T04:17:50.895Z,99783.31
2023-01-11T04:20:17.363Z,99778.41
2023-01-11T04:22:43.801Z,99765.66
2023-01-11T04:25:10.199Z,99760.88
2023-01-11T04:27:36.647Z,99779.97
2023-01-11T04:30:03.711Z,99778.06
2023-01-11T04:32:30.088Z,99780.47
2023-01-11T04:34:56.648Z,99772.22
2023-01-11T04:37:23.127Z,99783.44
2023-01-11T04:39:49.597Z,99790.34
2023-01-11T04:42:18.596Z,99768.75
2023-01-11T04:44:47.947Z,99766.38
2023-01-11T04:47:16.144Z,99758.25
2023-01-11T04:49:42.927Z,99745.84
2023-01-11T04:52:14.265Z,99766.72
2023-01-11T04:54:41.233Z,99750.88
2023-01-11T04:57:11.835Z,99739.88
2023-01-11T04:59:38.224Z,99744.16
2023-01-11T05:02:04.814Z,99737.13
2023-01-11T05:04:31.354Z,99733.56
2023-01-11T05:06:57.777Z,99744.16
2023-01-11T05:09:24.416Z,99731.97
2023-01-11T05:11:50.795Z,99742.72
2023-01-11T05:14:17.599Z,99741.03
2023-01-11T05:16:44.076Z,99746.28
2023-01-11T05:19:11.474Z,99744.38
2023-01-11T05:21:40.068Z,99736.38
2023-01-11T05:24:08.924Z,99724.31
2023-01-11T05:26:37.374Z,99742.00
2023-01-11T05:29:07.337Z,99727.31
2023-01-11T05:31:36.893Z,99744.16
2023-01-11T05:34:03.692Z,99735.31
2023-01-11T05:36:30.131Z,99730.03
2023-01-11T05:38:57.298Z,99722.88
2023-01-11T05:41:26.214Z,99719.91
2023-01-11T05:44:12.131Z,99720.84
2023-01-11T05:46:40.006Z,99714.91
2023-01-11T05:49:07.405Z,99720.16
2023-01-11T05:51:34.472Z,99711.31
2023-01-11T05:54:02.577Z,99710.22
2023-01-11T05:56:29.198Z,99715.47
2023-01-11T05:58:55.830Z,99713.78
2023-01-11T06:01:23.420Z,99709.66
2023-01-11T06:03:49.868Z,99705.22
2023-01-11T06:06:17.770Z,99706.16
2023-01-11T06:08:44.250Z,99715.25
2023-01-11T06:11:10.669Z,99706.38
2023-01-11T06:13:37.111Z,99702.56
2023-01-11T06:16:03.422Z,99705.63
2023-01-11T06:18:35.164Z,99698.97
2023-01-11T06:21:02.059Z,99703.41
2023-01-11T06:23:31.095Z,99711.13
2023-01-11T06:26:01.386Z,99709.47
2023-01-11T06:28:27.911Z,99702.06
2023-01-11T06:30:58.960Z,99701.81
2023-01-11T06:33:26.863Z,99696.44
2023-01-11T06:35:53.921Z,99701.94
2023-01-11T06:38:22.705Z,99704.88
2023-01-11T06:41:00.513Z,99703.22
2023-01-11T06:43:27.947Z,99702.97
2023-01-11T06:45:54.384Z,99689.13
2023-01-11T06:48:22.083Z,99682.69
2023-01-11T06:50:50.316Z,99682.78
2023-01-11T06:53:16.806Z,99681.44
2023-01-11T06:55:43.572Z,99676.44
2023-01-11T06:58:10.196Z,99670.94
2023-01-11T07:00:36.680Z,99680.22
2023-01-11T07:03:04.815Z,99684.53
2023-01-11T07:05:35.436Z,99681.50
2023-01-11T07:08:02.995Z,99701.19
2023-01-11T07:10:29.485Z,99697.63
2023-01-11T07:12:55.833Z,99708.81
2023-01-11T07:15:22.424Z,99697.13
2023-01-11T07:17:54.170Z,99706.53
2023-01-11T07:20:20.557Z,99707.38
2023-01-11T07:22:47.116Z,99701.88
2023-01-11T07:25:13.517Z,99712.22
2023-01-11T07:27:39.999Z,99696.34
2023-01-11T07:30:08.473Z,99705.78
2023-01-11T07:32:36.055Z,99693.56
2023-01-11T07:35:02.457Z,99686.56
2023-01-11T07:37:32.586Z,99696.41
2023-01-11T07:39:59.101Z,99691.16
2023-01-11T07:42:43.831Z,99687.22
2023-01-11T07:45:10.850Z,99693.47
2023-01-11T07:47:37.363Z,99690.31
2023-01-11T07:50:04.061Z,99688.66
2023-01-11T07:52:30.541Z,99680.06
2023-01-11T07:55:02.191Z,99679.22
2023-01-11T07:57:31.410Z,99689.22
2023-01-11T07:59:58.326Z,99691.03
2023-01-11T08:02:24.847Z,99691.84
2023-01-11T08:04:51.360Z,99685.00
2023-01-11T08:07:17.795Z,99677.72
2023-01-11T08:09:44.381Z,99680.06
2023-01-11T08:12:29.166Z,99678.00
2023-01-11T08:14:55.849Z,99681.88
2023-01-11T08:17:22.287Z,99680.53
2023-01-11T08:19:48.658Z,99691.56
2023-01-11T08:22:15.077Z,99696.84
2023-01-11T08:24:41.445Z,99694.91
2023-01-11T08:27:08.088Z,99696.56
2023-01-11T08:29:34.642Z,99696.56
2023-01-11T08:32:01.249Z,99701.31
2023-01-11T08:34:29.045Z,99693.06
2023-01-11T08:37:01.907Z,99678.50
2023-01-11T08:39:30.996Z,99668.38
2023-01-11T08:42:00.775Z,99677.94
2023-01-11T08:44:35.005Z,99679.03
2023-01-11T08:47:02.498Z,99670.19
2023-01-11T08:49:30.364Z,99665.59
2023-01-11T08:51:56.842Z,99673.94
2023-01-11T08:54:23.255Z,99677.03
2023-01-11T08:56:49.592Z,99668.19
2023-01-11T08:59:15.998Z,99671.22
2023-01-11T09:01:42.544Z,99664.59
2023-01-11T09:04:19.324Z,99671.66
2023-01-11T09:06:50.008Z,99664.72
2023-01-11T09:09:16.888Z,99655.50
2023-01-11T09:11:56.474Z,99657.44
2023-01-11T09:14:24.820Z,99660.78
2023-01-11T09:16:52.513Z,99651.34
2023-01-11T09:19:18.921Z,99658.69
2023-01-11T09:21:46.392Z,99661.06
2023-01-11T09:24:13.884Z,99662.59
2023-01-11T09:26:42.196Z,99657.88
2023-01-11T09:29:09.212Z,99661.94
2023-01-11T09:31:35.786Z,99654.44
2023-01-11T09:34:02.203Z,99658.47
2023-01-11T09:36:30.834Z,99653.88
2023-01-11T09:39:00.302Z,99647.09
2023-01-11T09:41:40.647Z,99644.19
2023-01-11T09:44:16.296Z,99642.81
2023-01-11T09:46:48.202Z,99643.63
2023-01-11T09:49:29.563Z,99632.53
2023-01-11T09:52:18.206Z,99638.25
2023-01-11T09:54:45.455Z,99637.53
2023-01-11T09:57:38.230Z,99635.72
2023-01-11T10:00:31.394Z,99631.16
2023-01-11T10:03:43.180Z,99623.22
2023-01-11T10:06:24.217Z,99620.34
2023-01-11T10:18:27.583Z,99602.84
2023-01-11T10:18:34.389Z,99605.78
2023-01-11T10:21:07.246Z,99601.47
2023-01-11T10:23:56.034Z,99597.84
2023-01-11T10:26:29.008Z,99588.69
2023-01-11T10:29:39.556Z,99591.44
2023-01-11T10:32:34.586Z,99591.41
2023-01-11T10:35:25.917Z,99584.75
2023-01-11T10:38:16.993Z,99580.28
2023-01-11T10:41:06.729Z,99570.81
2023-01-11T10:43:40.395Z,99581.22
2023-01-11T10:46:26.193Z,99574.69
2023-01-11T10:49:15.598Z,99576.06
2023-01-11T10:51:45.555Z,99566.56
2023-01-11T10:54:23.413Z,99567.81
2023-01-11T10:57:03.017Z,99573.22
2023-01-11T10:59:46.824Z,99560.72
2023-01-11T11:02:24.806Z,99567.06
2023-01-11T11:05:14.443Z,99566.19
2023-01-11T11:07:50.836Z,99569.19
2023-01-11T11:10:37.719Z,99568.25
2023-01-11T11:13:17.310Z,99568.59
2023-01-11T11:15:47.106Z,99559.72
2023-01-11T11:18:13.546Z,99558.13
2023-01-11T11:20:40.684Z,99556.50
2023-01-11T11:23:07.125Z,99554.97
2023-01-11T11:25:41.432Z,99546.88
2023-01-11T11:28:15.547Z,99548.25
2023-01-11T11:30:45.333Z,99549.69
2023-01-11T11:33:22.274Z,99563.72
2023-01-11T11:36:04.553Z,99539.81
2023-01-11T11:38:45.030Z,99544.25
2023-01-11T11:41:13.739Z,99543.28
2023-01-11T11:43:45.912Z,99534.84
2023-01-11T11:46:19.313Z,99530.31
2023-01-11T11:49:08.621Z,99536.06
2023-01-11T11:51:35.358Z,99517.41
2023-01-11T11:54:02.036Z,99525.84
2023-01-11T11:56:37.857Z,99519.59
2023-01-11T11:59:09.212Z,99516.28
2023-01-11T12:01:39.517Z,99511.53
2023-01-11T12:04:18.661Z,99501.78
2023-01-11T12:07:05.733Z,99495.69
2023-01-11T12:09:34.764Z,99509.56
2023-01-11T12:12:02.531Z,99489.56
2023-01-11T12:14:32.375Z,99492.91
2023-01-11T12:16:59.264Z,99490.63
2023-01-11T12:19:41.358Z,99491.31
2023-01-11T12:22:28.985Z,99488.50
2023-01-11T12:25:19.198Z,99476.72
2023-01-11T12:28:28.296Z,99479.50
2023-01-11T12:31:31.254Z,99478.25
2023-01-11T12:34:17.279Z,99477.00
2023-01-11T12:37:02.346Z,99476.00
2023-01-11T12:39:53.462Z,99468.09
2023-01-11T12:42:28.947Z,99463.31
2023-01-11T12:45:06.735Z,99468.41
2023-01-11T12:48:23.365Z,99459.13
2023-01-11T12:51:13.855Z,99458.19
2023-01-11T12:53:49.406Z,99449.22
2023-01-11T12:56:31.868Z,99453.06
2023-01-11T12:59:36.694Z,99445.63
2023-01-11T13:02:23.703Z,99443.94
2023-01-11T13:05:12.972Z,99447.56
2023-01-11T13:07:51.773Z,99447.06
2023-01-11T13:10:31.924Z,99449.84
2023-01-11T13:13:55.220Z,99435.97
2023-01-11T13:16:31.329Z,99441.59
2023-01-11T13:19:08.632Z,99444.72
2023-01-11T13:21:44.428Z,99450.84
2023-01-11T13:24:13.347Z,99442.22
2023-01-11T13:26:44.089Z,99447.50
2023-01-11T13:29:24.181Z,99446.84
2023-01-11T13:31:52.829Z,99450.44
2023-01-11T13:34:23.116Z,99453.25
2023-01-11T13:36:55.661Z,99454.91
2023-01-11T13:39:32.237Z,99453.25
2023-01-11T13:42:04.585Z,99463.16
2023-01-11T13:44:37.347Z,99464.28
2023-01-11T13:47:13.179Z,99466.09
2023-01-11T13:49:45.405Z,99467.59
2023-01-11T13:52:15.043Z,99468.28
2023-01-11T13:54:49.750Z,99463.13
2023-01-11T13:57:27.113Z,99465.19
2023-01-11T14:00:01.489Z,99465.44
2023-01-11T14:02:47.563Z,99462.75
2023-01-11T14:05:21.250Z,99459.44
2023-01-11T14:08:11.719Z,99472.78
2023-01-11T14:11:00.535Z,99476.56
2023-01-11T14:14:00.909Z,99469.22
2023-01-11T14:16:51.247Z,99475.59
2023-01-11T14:19:39.212Z,99471.19
2023-01-11T14:22:17.683Z,99480.81
2023-01-11T14:24:53.918Z,99481.44
2023-01-11T14:27:28.581Z,99480.50
2023-01-11T14:30:05.068Z,99489.13
2023-01-11T14:33:02.290Z,99476.41
2023-01-11T14:35:52.547Z,99484.31
2023-01-11T14:38:21.856Z,99479.19
2023-01-11T14:41:19.251Z,99485.16
2023-01-11T14:44:10.979Z,99480.31
2023-01-11T14:46:51.069Z,99475.09
2023-01-11T14:49:41.955Z,99472.59
2023-01-11T14:52:16.237Z,99473.94
2023-01-11T14:54:47.193Z,99475.97
2023-01-11T14:57:40.559Z,99472.81
2023-01-11T15:00:18.859Z,99473.31
2023-01-11T15:02:51.331Z,99481.94
2023-01-11T15:05:29.531Z,99476.16
2023-01-11T15:08:13.058Z,99479.28
2023-01-11T15:10:47.168Z,99483.13
2023-01-11T15:13:18.613Z,99487.22
2023-01-11T15:16:04.336Z,99480.94
2023-01-11T15:18:31.450Z,99485.22
2023-01-11T15:21:03.727Z,99491.50
2023-01-11T15:23:45.883Z,99491.00
2023-01-11T15:26:15.376Z,99496.59
2023-01-11T15:28:51.709Z,99496.81
2023-01-11T15:31:39.090Z,99492.34
2023-01-11T15:34:21.989Z,99508.88
2023-01-11T15:37:02.401Z,99503.22
2023-01-11T15:39:52.173Z,99505.03
2023-01-11T15:42:37.225Z,99506.03
2023-01-11T15:45:15.939Z,99507.38
2023-01-11T15:47:51.265Z,99506.88
2023-01-11T15:50:43.570Z,99505.72
2023-01-11T15:53:53.164Z,99517.91
2023-01-11T15:56:22.794Z,99517.44
2023-01-11T15:59:19.921Z,99509.03
2023-01-11T16:02:15.643Z,99508.31
2023-01-11T16:04:51.519Z,99512.28
2023-01-11T16:07:55.105Z,99513.59
2023-01-11T16:10:44.926Z,99521.22
2023-01-11T16:13:34.019Z,99516.75
2023-01-11T16:16:16.128Z,99520.53
2023-01-11T16:18:55.772Z,99526.25
2023-01-11T16:21:37.514Z,99526.25
2023-01-11T16:24:09.486Z,99527.03
2023-01-11T16:26:37.393Z,99531.13
2023-01-11T16:29:11.385Z,99526.56
2023-01-11T16:31:59.194Z,99530.19
2023-01-11T16:34:28.773Z,99530.50
2023-01-11T16:36:55.913Z,99537.16
2023-01-11T16:39:25.960Z,99529.88
2023-01-11T16:42:06.005Z,99545.22
2023-01-11T16:44:51.432Z,99547.75
2023-01-11T16:47:19.883Z,99549.06
2023-01-11T16:49:49.368Z,99547.72
2023-01-11T16:52:28.049Z,99563.09
2023-01-11T16:54:57.115Z,99559.38
2023-01-11T16:57:40.387Z,99557.38
2023-01-11T17:00:19.727Z,99556.84
2023-01-11T17:02:48.861Z,99569.09
2023-01-11T17:05:24.345Z,99576.63
2023-01-11T17:07:50.816Z,99562.75
2023-01-11T17:10:20.167Z,99566.25
2023-01-11T17:12:52.032Z,99568.78
2023-01-11T17:15:24.414Z,99578.53
2023-01-11T17:17:50.956Z,99579.16
2023-01-11T17:20:21.834Z,99597.50
2023-01-11T17:22:56.820Z,99589.47
2023-01-11T17:25:29.552Z,99594.69
2023-01-11T17:28:04.265Z,99592.19
2023-01-11T17:30:32.454Z,99604.97
2023-01-11T17:32:59.549Z,99608.69
2023-01-11T17:35:36.616Z,99599.47
2023-01-11T17:38:05.932Z,99604.09
2023-01-11T17:40:36.690Z,99602.88
2023-01-11T17:43:42.857Z,99608.28
2023-01-11T17:46:16.874Z,99614.25
2023-01-11T17:48:55.524Z,99613.56
2023-01-11T17:51:27.448Z,99612.91
2023-01-11T17:53:54.072Z,99625.50
2023-01-11T17:56:32.620Z,99627.06
2023-01-11T17:59:18.665Z,99638.97
2023-01-11T18:01:50.513Z,99632.34
2023-01-11T18:04:20.608Z,99637.84
2023-01-11T18:06:48.661Z,99637.63
2023-01-11T18:09:32.652Z,99641.63
2023-01-11T18:12:18.251Z,99642.00
2023-01-11T18:14:59.704Z,99650.56
2023-01-11T18:17:32.261Z,99638.97
2023-01-11T18:20:00.097Z,99638.84
2023-01-11T18:22:43.927Z,99653.84
2023-01-11T18:25:21.780Z,99637.31
2023-01-11T18:27:48.955Z,99646.53
2023-01-11T18:30:30.805Z,99656.81
2023-01-11T18:32:58.160Z,99658.19
2023-01-11T18:35:24.967Z,99668.06
2023-01-11T18:37:51.990Z,99657.88
2023-01-11T18:40:19.455Z,99670.72
2023-01-11T18:42:47.437Z,99658.63
2023-01-11T18:45:14.449Z,99661.78
2023-01-11T18:47:40.905Z,99668.31
2023-01-11T18:50:09.859Z,99673.66
2023-01-11T18:52:37.092Z,99669.19
2023-01-11T18:55:14.185Z,99689.66
2023-01-11T18:57:41.694Z,99669.38
2023-01-11T19:00:08.868Z,99674.09
2023-01-11T19:02:44.431Z,99677.66
2023-01-11T19:05:13.239Z,99683.56
2023-01-11T19:07:39.636Z,99676.75
2023-01-11T19:10:06.514Z,99682.22
2023-01-11T19:12:32.981Z,99675.31
2023-01-11T19:14:59.375Z,99678.25
2023-01-11T19:17:28.762Z,99686.56
2023-01-11T19:19:55.157Z,99719.34
2023-01-11T19:22:24.565Z,99713.25
2023-01-11T19:24:53.290Z,99708.84
2023-01-11T19:27:19.643Z,99714.84
2023-01-11T19:29:46.009Z,99711.19
2023-01-11T19:32:12.384Z,99725.03
2023-01-11T19:34:39.804Z,99726.31
2023-01-11T19:37:06.315Z,99736.00
2023-01-11T19:39:32.681Z,99731.44
2023-01-11T19:42:01.423Z,99743.84
2023-01-11T19:44:35.959Z,99740.59
2023-01-11T19:47:12.025Z,99742.50
2023-01-11T19:49:40.280Z,99740.25
2023-01-11T19:52:13.218Z,99752.16
2023-01-11T19:54:42.622Z,99760.25
2023-01-11T19:57:14.818Z,99753.38
2023-01-11T19:59:41.546Z,99754.03
2023-01-11T20:02:09.715Z,99770.22
2023-01-11T20:04:37.085Z,99766.00
2023-01-11T20:07:04.858Z,99775.50
2023-01-11T20:09:31.321Z,99775.38
2023-01-11T20:11:58.780Z,99775.97
2023-01-11T20:14:25.716Z,99778.16
2023-01-11T20:16:52.100Z,99783.44
2023-01-11T20:19:18.521Z,99784.00
2023-01-11T20:21:44.905Z,99795.44
2023-01-11T20:24:13.220Z,99796.06
2023-01-11T20:26:40.558Z,99798.94
2023-01-11T20:29:07.413Z,99805.38
2023-01-11T20:31:35.483Z,99801.28
2023-01-11T20:34:07.316Z,99801.19
2023-01-11T20:36:33.680Z,99798.03
2023-01-11T20:39:00.273Z,99789.94
2023-01-11T20:41:46.496Z,99803.06
2023-01-11T20:44:24.383Z,99810.31
2023-01-11T20:46:52.117Z,99820.19
2023-01-11T20:49:21.175Z,99814.22
2023-01-11T20:51:47.580Z,99813.94
2023-01-11T20:54:14.237Z,99810.91
2023-01-11T20:56:41.632Z,99819.28
2023-01-11T20:59:09.310Z,99812.47
2023-01-11T21:01:37.139Z,99816.88
2023-01-11T21:04:08.894Z,99814.22
2023-01-11T21:06:39.151Z,99807.78
2023-01-11T21:09:07.172Z,99807.47
2023-01-11T21:11:34.378Z,99822.38
2023-01-11T21:14:04.179Z,99824.31
2023-01-11T21:16:31.434Z,99830.88
2023-01-11T21:19:00.536Z,99831.56
2023-01-11T21:21:28.110Z,99822.66
2023-01-11T21:23:57.728Z,99824.63
2023-01-11T21:26:24.729Z,99829.59
2023-01-11T21:28:53.932Z,99838.53
2023-01-11T21:31:23.225Z,99833.09
2023-01-11T21:33:50.186Z,99835.19
2023-01-11T21:36:21.887Z,99832.78
2023-01-11T21:38:57.026Z,99839.88
2023-01-11T21:41:45.446Z,99838.59
2023-01-11T21:44:12.841Z,99850.81
2023-01-11T21:46:40.313Z,99848.28
2023-01-11T21:49:07.247Z,99851.63
2023-01-11T21:51:34.452Z,99856.91
2023-01-11T21:54:07.803Z,99858.03
2023-01-11T21:56:34.886Z,99856.50
2023-01-11T21:59:01.384Z,99853.88
2023-01-11T22:01:28.136Z,99864.69
2023-01-11T22:03:54.603Z,99862.91
2023-01-11T22:06:21.012Z,99866.09
2023-01-11T22:08:47.605Z,99870.31
2023-01-11T22:11:16.221Z,99860.72
2023-01-11T22:13:43.075Z,99863.09
2023-01-11T22:16:12.858Z,99862.81
2023-01-11T22:18:41.001Z,99876.03
2023-01-11T22:21:20.471Z,99870.34
2023-01-11T22:23:48.074Z,99869.38
2023-01-11T22:26:17.080Z,99868.84
2023-01-11T22:29:03.389Z,99887.34
2023-01-11T22:31:30.949Z,99882.75
2023-01-11T22:33:58.052Z,99882.06
2023-01-11T22:36:25.629Z,99877.31
2023-01-11T22:38:52.636Z,99887.34
2023-01-11T22:41:19.758Z,99878.88
2023-01-11T22:43:46.815Z,99884.59
2023-01-11T22:46:15.922Z,99884.59
2023-01-11T22:48:43.465Z,99886.81
2023-01-11T22:51:11.055Z,99882.66
2023-01-11T22:53:40.764Z,99897.38
2023-01-11T22:56:08.830Z,99887.94
2023-01-11T22:58:36.054Z,99877.94
2023-01-11T23:01:14.080Z,99880.44
2023-01-11T23:03:41.641Z,99881.25
2023-01-11T23:06:09.579Z,99882.25
2023-01-11T23:08:37.625Z,99887.50
2023-01-11T23:11:04.069Z,99886.53
2023-01-11T23:13:48.983Z,99884.03
2023-01-11T23:16:15.434Z,99882.09
2023-01-11T23:18:41.855Z,99875.13
2023-01-11T23:21:08.295Z,99873.22
2023-01-11T23:23:34.752Z,99875.41
2023-01-11T23:26:01.147Z,99879.59
2023-01-11T23:28:29.778Z,99877.22
2023-01-11T23:30:56.158Z,99882.34
2023-01-11T23:33:22.503Z,99880.41
2023-01-11T23:35:59.034Z,99892.91
2023-01-11T23:38:25.716Z,99884.44
2023-01-11T23:41:10.588Z,99885.25
2023-01-11T23:43:40.616Z,99895.38
2023-01-11T23:46:25.687Z,99881.25
2023-01-11T23:48:52.043Z,99874.81
2023-01-11T23:51:18.410Z,99892.31
2023-01-11T23:53:44.884Z,99881.91
2023-01-11T23:56:11.270Z,99886.47
2023-01-11T23:58:37.625Z,99883.72
